createdAt,value
2022-08-14T00:01:24.005Z,97597.97
2022-08-14T00:03:57.551Z,97593.47
2022-08-14T00:06:32.300Z,97589.69
2022-08-14T00:09:06.173Z,97588.13
2022-08-14T00:11:40.247Z,97581.94
2022-08-14T00:14:17.500Z,97575.03
2022-08-14T00:16:55.779Z,97568.22
2022-08-14T00:19:29.384Z,97573.31
2022-08-14T00:22:06.575Z,97566.44
2022-08-14T00:24:39.740Z,97568.00
2022-08-14T00:27:13.259Z,97567.81
2022-08-14T00:29:50.310Z,97566.94
2022-08-14T00:32:52.007Z,97561.63
2022-08-14T00:35:16.672Z,97551.97
2022-08-14T00:37:51.930Z,97535.19
2022-08-14T00:40:33.066Z,97540.59
2022-08-14T00:43:07.919Z,97545.03
2022-08-14T00:45:41.449Z,97528.66
2022-08-14T00:48:14.552Z,97537.19
2022-08-14T00:51:10.669Z,97530.34
2022-08-14T00:53:50.312Z,97537.13
2022-08-14T00:56:26.641Z,97520.56
2022-08-14T00:59:04.789Z,97522.22
2022-08-14T01:01:38.869Z,97518.72
2022-08-14T01:04:37.744Z,97512.59
2022-08-14T01:07:09.036Z,97510.00
2022-08-14T01:09:43.758Z,97510.00
2022-08-14T01:12:27.320Z,97506.50
2022-08-14T01:15:05.387Z,97507.78
2022-08-14T01:18:00.376Z,97508.53
2022-08-14T01:20:51.729Z,97513.56
2022-08-14T01:23:26.386Z,97505.00
2022-08-14T01:26:34.349Z,97500.88
2022-08-14T01:29:11.004Z,97502.59
2022-08-14T01:32:04.492Z,97504.41
2022-08-14T01:35:19.618Z,97505.34
2022-08-14T01:37:36.724Z,97509.50
2022-08-14T01:40:19.965Z,97511.06
2022-08-14T01:42:58.638Z,97503.47
2022-08-14T01:45:40.144Z,97494.69
2022-08-14T01:48:14.592Z,97487.81
2022-08-14T01:50:47.689Z,97490.34
2022-08-14T01:53:22.713Z,97486.09
2022-08-14T01:55:58.918Z,97482.56
2022-08-14T01:58:32.073Z,97483.53
2022-08-14T02:01:06.767Z,97483.59
2022-08-14T02:03:43.091Z,97484.38
2022-08-14T02:06:32.909Z,97481.78
2022-08-14T02:09:19.070Z,97479.81
2022-08-14T02:11:56.349Z,97487.53
2022-08-14T02:14:32.169Z,97481.47
2022-08-14T02:17:12.248Z,97484.81
2022-08-14T02:19:45.383Z,97476.25
2022-08-14T02:22:28.698Z,97477.09
2022-08-14T02:25:07.595Z,97462.16
2022-08-14T02:28:22.349Z,97450.75
2022-08-14T02:30:40.042Z,97446.28
2022-08-14T02:33:13.350Z,97448.69
2022-08-14T02:35:49.911Z,97451.28
2022-08-14T02:38:29.961Z,97450.09
2022-08-14T02:41:08.979Z,97446.66
2022-08-14T02:43:46.375Z,97442.53
2022-08-14T02:46:26.959Z,97434.78
2022-08-14T02:49:06.624Z,97442.53
2022-08-14T02:51:41.285Z,97438.69
2022-08-14T02:54:19.757Z,97435.19
2022-08-14T02:57:16.604Z,97430.00
2022-08-14T02:59:50.043Z,97432.41
2022-08-14T03:02:33.493Z,97436.41
2022-08-14T03:05:17.431Z,97430.13
2022-08-14T03:07:52.817Z,97411.94
2022-08-14T03:10:32.302Z,97414.50
2022-08-14T03:13:06.705Z,97405.03
2022-08-14T03:15:58.135Z,97400.72
2022-08-14T03:18:32.819Z,97394.69
2022-08-14T03:21:08.677Z,97394.56
2022-08-14T03:23:43.439Z,97399.63
2022-08-14T03:26:30.402Z,97396.00
2022-08-14T03:29:05.266Z,97396.00
2022-08-14T03:31:51.267Z,97394.28
2022-08-14T03:34:52.663Z,97395.06
2022-08-14T03:37:37.370Z,97387.44
2022-08-14T03:40:17.652Z,97383.84
2022-08-14T03:42:51.798Z,97383.66
2022-08-14T03:45:35.347Z,97383.41
2022-08-14T03:48:30.257Z,97386.91
2022-08-14T03:51:04.861Z,97384.16
2022-08-14T03:53:44.093Z,97384.00
2022-08-14T03:56:21.453Z,97371.19
2022-08-14T03:58:59.196Z,97361.78
2022-08-14T04:01:39.270Z,97370.38
2022-08-14T04:04:16.072Z,97366.81
2022-08-14T04:06:51.435Z,97373.50
2022-08-14T04:09:26.717Z,97368.38
2022-08-14T04:12:00.201Z,97362.53
2022-08-14T04:14:37.137Z,97368.63
2022-08-14T04:17:11.249Z,97361.69
2022-08-14T04:19:47.472Z,97361.59
2022-08-14T04:22:22.190Z,97367.50
2022-08-14T04:24:55.661Z,97361.66
2022-08-14T04:27:29.399Z,97359.97
2022-08-14T04:30:05.567Z,97363.41
2022-08-14T04:33:02.434Z,97368.69
2022-08-14T04:35:55.336Z,97364.34
2022-08-14T04:38:44.142Z,97371.19
2022-08-14T04:41:38.126Z,97365.00
2022-08-14T04:44:36.154Z,97370.75
2022-08-14T04:47:27.096Z,97365.63
2022-08-14T04:50:05.002Z,97365.81
2022-08-14T04:52:39.618Z,97361.34
2022-08-14T04:55:12.722Z,97359.44
2022-08-14T04:57:47.326Z,97360.31
2022-08-14T05:00:22.162Z,97346.63
2022-08-14T05:02:58.028Z,97355.16
2022-08-14T05:05:32.750Z,97352.13
2022-08-14T05:08:32.182Z,97355.56
2022-08-14T05:11:11.865Z,97356.53
2022-08-14T05:14:33.700Z,97363.81
2022-08-14T05:16:39.867Z,97366.13
2022-08-14T05:19:18.973Z,97362.88
2022-08-14T05:22:18.862Z,97370.78
2022-08-14T05:24:53.729Z,97366.53
2022-08-14T05:27:30.928Z,97365.47
2022-08-14T05:30:08.505Z,97369.19
2022-08-14T05:32:42.419Z,97363.34
2022-08-14T05:35:21.759Z,97359.88
2022-08-14T05:37:55.181Z,97356.84
2022-08-14T05:40:30.040Z,97356.84
2022-08-14T05:43:06.833Z,97362.69
2022-08-14T05:45:40.526Z,97360.66
2022-08-14T05:48:32.945Z,97358.47
2022-08-14T05:51:07.171Z,97365.72
2022-08-14T05:53:42.466Z,97361.59
2022-08-14T05:56:17.201Z,97367.91
2022-08-14T05:58:50.305Z,97357.66
2022-08-14T06:01:23.549Z,97359.38
2022-08-14T06:03:57.023Z,97349.09
2022-08-14T06:06:32.661Z,97343.03
2022-08-14T06:09:10.535Z,97343.09
2022-08-14T06:11:45.071Z,97347.44
2022-08-14T06:14:24.076Z,97336.06
2022-08-14T06:16:57.412Z,97338.53
2022-08-14T06:19:30.705Z,97336.63
2022-08-14T06:22:04.195Z,97330.53
2022-08-14T06:24:37.348Z,97333.81
2022-08-14T06:27:18.507Z,97339.81
2022-08-14T06:29:55.735Z,97333.44
2022-08-14T06:32:38.156Z,97329.50
2022-08-14T06:35:14.716Z,97327.78
2022-08-14T06:37:51.456Z,97326.81
2022-08-14T06:40:28.679Z,97311.81
2022-08-14T06:43:05.624Z,97305.31
2022-08-14T06:45:42.430Z,97302.59
2022-08-14T06:48:17.628Z,97305.47
2022-08-14T06:50:52.258Z,97299.94
2022-08-14T06:53:27.514Z,97293.16
2022-08-14T06:56:02.377Z,97287.88
2022-08-14T06:58:37.016Z,97288.47
2022-08-14T07:01:28.035Z,97280.19
2022-08-14T07:04:31.022Z,97280.47
2022-08-14T07:07:06.839Z,97270.50
2022-08-14T07:09:44.235Z,97266.78
2022-08-14T07:12:52.111Z,97265.88
2022-08-14T07:15:18.361Z,97265.44
2022-08-14T07:17:54.047Z,97263.44
2022-08-14T07:20:30.626Z,97261.72
2022-08-14T07:23:11.073Z,97262.19
2022-08-14T07:25:56.706Z,97253.63
2022-08-14T07:28:34.693Z,97248.34
2022-08-14T07:31:12.341Z,97247.66
2022-08-14T07:33:50.795Z,97248.16
2022-08-14T07:36:27.528Z,97249.75
2022-08-14T07:39:12.440Z,97249.88
2022-08-14T07:41:46.606Z,97257.34
2022-08-14T07:44:29.060Z,97254.56
2022-08-14T07:47:07.804Z,97246.81
2022-08-14T07:49:43.504Z,97236.97
2022-08-14T07:52:22.255Z,97244.50
2022-08-14T07:55:04.944Z,97241.13
2022-08-14T07:57:38.349Z,97242.69
2022-08-14T08:00:31.136Z,97242.53
2022-08-14T08:03:10.863Z,97245.78
2022-08-14T08:05:45.279Z,97250.06
2022-08-14T08:08:27.211Z,97236.72
2022-08-14T08:11:03.732Z,97246.50
2022-08-14T08:13:49.074Z,97250.13
2022-08-14T08:16:30.053Z,97259.47
2022-08-14T08:19:12.821Z,97261.47
2022-08-14T08:21:47.684Z,97266.53
2022-08-14T08:24:21.042Z,97268.25
2022-08-14T08:26:54.234Z,97261.06
2022-08-14T08:29:28.544Z,97262.13
2022-08-14T08:32:06.173Z,97255.41
2022-08-14T08:34:49.311Z,97247.38
2022-08-14T08:37:22.726Z,97251.59
2022-08-14T08:40:01.987Z,97242.94
2022-08-14T08:42:38.757Z,97244.59
2022-08-14T08:45:17.637Z,97240.31
2022-08-14T08:47:52.953Z,97238.00
2022-08-14T08:53:06.817Z,97229.28
2022-08-14T08:55:42.451Z,97220.81
2022-08-14T08:58:24.934Z,97227.81
2022-08-14T09:01:00.618Z,97216.41
2022-08-14T09:03:37.880Z,97221.41
2022-08-14T09:07:01.644Z,97224.72
2022-08-14T09:09:22.827Z,97220.94
2022-08-14T09:11:58.495Z,97222.72
2022-08-14T09:14:36.458Z,97204.34
2022-08-14T09:17:13.154Z,97206.31
2022-08-14T09:19:47.936Z,97206.31
2022-08-14T09:22:35.884Z,97201.50
2022-08-14T09:25:09.843Z,97204.72
2022-08-14T09:27:43.862Z,97195.75
2022-08-14T09:30:32.121Z,97192.88
2022-08-14T09:33:33.089Z,97186.09
2022-08-14T09:36:28.945Z,97195.78
2022-08-14T09:39:23.001Z,97186.09
2022-08-14T09:42:36.781Z,97170.41
2022-08-14T09:45:20.915Z,97183.09
2022-08-14T09:47:57.260Z,97177.22
2022-08-14T09:50:33.151Z,97170.47
2022-08-14T09:53:18.315Z,97173.88
2022-08-14T09:56:02.319Z,97181.88
2022-08-14T09:58:41.535Z,97204.25
2022-08-14T10:01:17.257Z,97201.38
2022-08-14T10:03:55.611Z,97193.44
2022-08-14T10:06:31.012Z,97188.91
2022-08-14T10:09:11.993Z,97183.50
2022-08-14T10:11:59.736Z,97171.34
2022-08-14T10:14:37.154Z,97177.66
2022-08-14T10:17:10.480Z,97168.59
2022-08-14T10:19:49.878Z,97167.38
2022-08-14T10:23:21.820Z,97156.19
2022-08-14T10:25:23.129Z,97153.47
2022-08-14T10:28:00.317Z,97154.19
2022-08-14T10:30:37.705Z,97150.13
2022-08-14T10:33:11.292Z,97143.78
2022-08-14T10:35:48.062Z,97135.00
2022-08-14T10:38:33.710Z,97135.94
2022-08-14T10:41:15.274Z,97137.84
2022-08-14T10:44:20.867Z,97129.38
2022-08-14T10:47:39.478Z,97127.47
2022-08-14T10:50:03.549Z,97124.09
2022-08-14T10:52:38.203Z,97109.25
2022-08-14T10:55:19.432Z,97091.16
2022-08-14T10:57:57.535Z,97090.78
2022-08-14T11:00:35.624Z,97075.59
2022-08-14T11:03:19.853Z,97073.78
2022-08-14T11:06:18.729Z,97080.06
2022-08-14T11:08:52.201Z,97076.28
2022-08-14T11:11:28.634Z,97083.13
2022-08-14T11:14:10.642Z,97077.72
2022-08-14T11:16:49.098Z,97070.94
2022-08-14T11:19:27.404Z,97089.38
2022-08-14T11:22:04.217Z,97096.91
2022-08-14T11:24:54.965Z,97077.84
2022-08-14T11:27:33.240Z,97080.00
2022-08-14T11:30:50.981Z,97068.88
2022-08-14T11:33:07.607Z,97067.03
2022-08-14T11:35:47.190Z,97071.03
2022-08-14T11:38:25.600Z,97074.72
2022-08-14T11:41:00.291Z,97076.06
2022-08-14T11:43:40.598Z,97065.09
2022-08-14T11:46:17.833Z,97066.09
2022-08-14T11:49:05.631Z,97061.16
2022-08-14T11:51:52.972Z,97067.13
2022-08-14T11:54:33.902Z,97071.63
2022-08-14T11:57:15.943Z,97072.69
2022-08-14T12:00:03.959Z,97064.06
2022-08-14T12:03:02.548Z,97070.31
2022-08-14T12:05:46.370Z,97064.91
2022-08-14T12:08:24.416Z,97051.25
2022-08-14T12:10:58.911Z,97051.00
2022-08-14T12:13:34.790Z,97049.78
2022-08-14T12:16:20.441Z,97038.84
2022-08-14T12:18:59.662Z,97026.41
2022-08-14T12:21:34.302Z,97033.94
2022-08-14T12:24:36.084Z,97026.34
2022-08-14T12:27:03.648Z,97017.16
2022-08-14T12:29:36.754Z,97024.25
2022-08-14T12:32:13.775Z,97011.94
2022-08-14T12:34:55.154Z,97017.34
2022-08-14T12:37:32.752Z,97016.38
2022-08-14T12:40:19.627Z,97006.31
2022-08-14T12:42:56.618Z,97003.06
2022-08-14T12:45:36.735Z,97006.91
2022-08-14T12:48:21.452Z,97003.50
2022-08-14T12:51:03.576Z,96986.56
2022-08-14T12:53:39.083Z,96984.69
2022-08-14T12:56:21.968Z,96978.41
2022-08-14T12:59:06.421Z,96976.88
2022-08-14T13:01:59.247Z,96971.94
2022-08-14T13:04:35.458Z,96976.84
2022-08-14T13:07:08.919Z,96974.31
2022-08-14T13:09:44.972Z,96965.19
2022-08-14T13:12:35.214Z,96967.84
2022-08-14T13:15:17.837Z,96967.66
2022-08-14T13:17:56.443Z,96954.91
2022-08-14T13:20:33.770Z,96953.84
2022-08-14T13:23:09.439Z,96951.31
2022-08-14T13:25:55.832Z,96955.69
2022-08-14T13:28:34.000Z,96949.34
2022-08-14T13:31:11.503Z,96948.97
2022-08-14T13:33:45.521Z,96938.78
2022-08-14T13:36:24.071Z,96942.41
2022-08-14T13:39:13.104Z,96945.63
2022-08-14T13:41:48.702Z,96942.09
2022-08-14T13:44:29.463Z,96932.25
2022-08-14T13:47:06.956Z,96924.19
2022-08-14T13:49:57.624Z,96923.13
2022-08-14T13:52:52.653Z,96923.66
2022-08-14T13:55:29.361Z,96907.28
2022-08-14T13:58:05.296Z,96914.16
2022-08-14T14:00:52.970Z,96913.81
2022-08-14T14:03:30.247Z,96901.41
2022-08-14T14:06:05.940Z,96895.81
2022-08-14T14:08:48.090Z,96907.00
2022-08-14T14:11:23.996Z,96899.09
2022-08-14T14:14:00.492Z,96900.28
2022-08-14T14:16:34.074Z,96886.94
2022-08-14T14:19:10.181Z,96877.63
2022-08-14T14:21:44.823Z,96882.78
2022-08-14T14:24:20.053Z,96878.88
2022-08-14T14:26:53.846Z,96872.88
2022-08-14T14:29:33.562Z,96874.44
2022-08-14T14:32:21.286Z,96869.75
2022-08-14T14:34:55.719Z,96870.63
2022-08-14T14:37:31.460Z,96866.00
2022-08-14T14:40:52.817Z,96865.53
2022-08-14T14:43:04.135Z,96847.03
2022-08-14T14:45:45.980Z,96856.94
2022-08-14T14:48:20.195Z,96851.38
2022-08-14T14:50:53.918Z,96844.53
2022-08-14T14:53:28.096Z,96850.94
2022-08-14T14:56:51.278Z,96856.03
2022-08-14T14:58:59.110Z,96854.56
2022-08-14T15:01:36.426Z,96848.69
2022-08-14T15:04:20.674Z,96843.59
2022-08-14T15:06:54.405Z,96838.59
2022-08-14T15:09:27.858Z,96833.97
2022-08-14T15:12:02.640Z,96837.47
2022-08-14T15:14:55.785Z,96839.78
2022-08-14T15:17:40.849Z,96838.13
2022-08-14T15:20:29.897Z,96829.47
2022-08-14T15:23:11.632Z,96826.44
2022-08-14T15:25:52.297Z,96835.28
2022-08-14T15:28:26.982Z,96833.94
2022-08-14T15:31:00.279Z,96833.56
2022-08-14T15:34:13.476Z,96834.63
2022-08-14T15:36:46.049Z,96831.13
2022-08-14T15:39:19.229Z,96826.09
2022-08-14T15:41:53.129Z,96825.88
2022-08-14T15:44:36.461Z,96825.50
2022-08-14T15:47:09.924Z,96822.13
2022-08-14T15:49:44.398Z,96828.34
2022-08-14T15:52:32.996Z,96833.88
2022-08-14T15:55:12.993Z,96833.22
2022-08-14T15:58:01.836Z,96826.25
2022-08-14T16:00:55.737Z,96834.81
2022-08-14T16:03:35.756Z,96830.19
2022-08-14T16:06:18.055Z,96827.16
2022-08-14T16:08:58.698Z,96827.50
2022-08-14T16:11:33.489Z,96820.09
2022-08-14T16:14:09.994Z,96819.81
2022-08-14T16:16:51.750Z,96816.28
2022-08-14T16:19:39.860Z,96815.84
2022-08-14T16:22:59.241Z,96815.84
2022-08-14T16:25:34.443Z,96819.13
2022-08-14T16:28:08.656Z,96815.69
2022-08-14T16:30:45.052Z,96810.78
2022-08-14T16:33:27.919Z,96816.31
2022-08-14T16:36:30.744Z,96811.72
2022-08-14T16:39:08.328Z,96817.56
2022-08-14T16:41:51.189Z,96815.63
2022-08-14T16:44:33.745Z,96807.50
2022-08-14T16:47:12.752Z,96812.13
2022-08-14T16:50:04.140Z,96807.66
2022-08-14T16:52:44.399Z,96808.13
2022-08-14T16:55:19.739Z,96802.44
2022-08-14T16:57:58.532Z,96800.28
2022-08-14T17:00:43.586Z,96803.31
2022-08-14T17:03:17.640Z,96802.75
2022-08-14T17:05:51.034Z,96797.03
2022-08-14T17:08:41.689Z,96806.13
2022-08-14T17:11:18.706Z,96795.88
2022-08-14T17:14:00.213Z,96790.09
2022-08-14T17:16:37.838Z,96794.00
2022-08-14T17:19:14.143Z,96793.63
2022-08-14T17:21:51.483Z,96794.09
2022-08-14T17:24:57.230Z,96792.69
2022-08-14T17:27:23.470Z,96780.81
2022-08-14T17:29:57.681Z,96788.19
2022-08-14T17:32:55.641Z,96795.63
2022-08-14T17:38:39.581Z,96788.44
2022-08-14T17:44:34.235Z,96786.69
2022-08-14T17:47:20.347Z,96787.94
2022-08-14T17:49:53.857Z,96792.69
2022-08-14T17:52:34.807Z,96785.22
2022-08-14T17:56:00.441Z,96788.22
2022-08-14T17:58:20.341Z,96784.16
2022-08-14T18:00:57.813Z,96786.28
2022-08-14T18:03:50.195Z,96797.22
2022-08-14T18:06:39.903Z,96790.50
2022-08-14T18:09:26.061Z,96790.06
2022-08-14T18:12:03.953Z,96788.56
2022-08-14T18:14:48.854Z,96784.56
2022-08-14T18:17:27.948Z,96793.66
2022-08-14T18:21:24.810Z,96794.91
2022-08-14T18:22:57.572Z,96790.09
2022-08-14T18:25:35.554Z,96800.13
2022-08-14T18:28:18.060Z,96797.91
2022-08-14T18:31:43.655Z,96811.34
2022-08-14T18:34:31.899Z,96802.09
2022-08-14T18:37:16.941Z,96799.72
2022-08-14T18:40:02.512Z,96806.94
2022-08-14T18:42:46.838Z,96816.13
2022-08-14T18:45:28.590Z,96810.19
2022-08-14T18:48:28.461Z,96809.63
2022-08-14T18:51:10.626Z,96809.91
2022-08-14T18:54:01.845Z,96820.56
2022-08-14T18:56:58.940Z,96815.56
2022-08-14T18:59:37.369Z,96818.44
2022-08-14T19:02:45.837Z,96830.91
2022-08-14T19:05:59.546Z,96832.91
2022-08-14T19:08:38.498Z,96833.84
2022-08-14T19:11:45.064Z,96836.56
2022-08-14T19:14:47.514Z,96837.66
2022-08-14T19:18:14.004Z,96841.38
2022-08-14T19:20:52.876Z,96843.19
2022-08-14T19:23:40.619Z,96845.13
2022-08-14T19:26:36.956Z,96851.41
2022-08-14T19:29:23.684Z,96846.38
2022-08-14T19:31:58.979Z,96845.66
2022-08-14T19:34:52.251Z,96840.47
2022-08-14T19:37:52.041Z,96857.22
2022-08-14T19:40:38.491Z,96867.81
2022-08-14T19:43:55.546Z,96867.00
2022-08-14T19:46:38.496Z,96869.66
2022-08-14T19:49:21.322Z,96868.91
2022-08-14T19:51:56.623Z,96869.91
2022-08-14T19:54:31.607Z,96871.75
2022-08-14T19:57:18.883Z,96880.50
2022-08-14T20:00:04.529Z,96878.75
2022-08-14T20:02:38.031Z,96884.00
2022-08-14T20:05:12.454Z,96880.53
2022-08-14T20:07:59.327Z,96883.25
2022-08-14T20:11:11.044Z,96880.63
2022-08-14T20:13:38.611Z,96887.66
2022-08-14T20:16:21.170Z,96886.78
2022-08-14T20:19:23.220Z,96894.59
2022-08-14T20:22:04.666Z,96887.63
2022-08-14T20:24:54.383Z,96892.00
2022-08-14T20:27:39.608Z,96892.97
2022-08-14T20:30:33.942Z,96894.72
2022-08-14T20:33:11.816Z,96905.16
2022-08-14T20:35:51.553Z,96897.34
2022-08-14T20:38:33.547Z,96892.13
2022-08-14T20:41:12.444Z,96899.97
2022-08-14T20:44:06.650Z,96897.41
2022-08-14T20:46:42.303Z,96894.88
2022-08-14T20:49:18.528Z,96894.00
2022-08-14T20:52:00.193Z,96900.09
2022-08-14T20:54:50.174Z,96894.88
2022-08-14T20:57:23.945Z,96900.09
2022-08-14T20:59:57.722Z,96896.63
2022-08-14T21:02:38.707Z,96898.34
2022-08-14T21:05:34.032Z,96901.72
2022-08-14T21:08:22.591Z,96908.72
2022-08-14T21:11:02.705Z,96907.03
2022-08-14T21:14:20.963Z,96919.25
2022-08-14T21:16:33.510Z,96913.22
2022-08-14T21:19:09.363Z,96914.06
2022-08-14T21:21:55.008Z,96922.78
2022-08-14T21:24:47.048Z,96921.03
2022-08-14T21:27:23.004Z,96927.13
2022-08-14T21:29:56.812Z,96923.69
2022-08-14T21:32:50.580Z,96919.31
2022-08-14T21:35:31.833Z,96917.56
2022-08-14T21:38:17.883Z,96921.03
2022-08-14T21:40:55.514Z,96932.38
2022-08-14T21:43:32.312Z,96926.31
2022-08-14T21:46:05.965Z,96926.34
2022-08-14T21:48:39.115Z,96921.13
2022-08-14T21:51:53.866Z,96927.19
2022-08-14T21:54:30.398Z,96919.41
2022-08-14T21:57:13.761Z,96918.53
2022-08-14T21:59:49.378Z,96928.13
2022-08-14T22:02:32.489Z,96926.38
2022-08-14T22:05:07.325Z,96925.50
2022-08-14T22:07:41.800Z,96928.13
2022-08-14T22:10:22.939Z,96929.84
2022-08-14T22:13:01.160Z,96927.22
2022-08-14T22:15:35.521Z,96929.88
2022-08-14T22:18:20.426Z,96933.31
2022-08-14T22:20:56.477Z,96927.28
2022-08-14T22:23:31.363Z,96925.53
2022-08-14T22:26:05.917Z,96932.47
2022-08-14T22:28:39.080Z,96933.31
2022-08-14T22:31:23.111Z,96935.06
2022-08-14T22:33:57.878Z,96932.47
2022-08-14T22:36:49.888Z,96929.88
2022-08-14T22:40:14.528Z,96929.00
2022-08-14T22:42:23.261Z,96934.19
2022-08-14T22:44:57.009Z,96930.72
2022-08-14T22:47:40.528Z,96934.22
2022-08-14T22:50:31.703Z,96935.97
2022-08-14T22:53:07.006Z,96924.69
2022-08-14T22:55:44.738Z,96932.47
2022-08-14T22:58:30.349Z,96935.09
2022-08-14T23:01:11.972Z,96931.63
2022-08-14T23:03:46.015Z,96931.63
2022-08-14T23:07:02.053Z,96935.97
2022-08-14T23:09:35.926Z,96934.25
2022-08-14T23:12:28.068Z,96933.41
2022-08-14T23:15:02.319Z,96932.53
2022-08-14T23:17:40.485Z,96926.44
2022-08-14T23:20:19.787Z,96929.03
2022-08-14T23:22:55.687Z,96935.13
2022-08-14T23:25:57.511Z,96941.19
2022-08-14T23:28:33.281Z,96940.34
2022-08-14T23:31:33.469Z,96928.22
2022-08-14T23:34:20.617Z,96933.41
2022-08-14T23:36:59.216Z,96934.31
2022-08-14T23:39:39.165Z,96931.69
2022-08-14T23:42:13.377Z,96934.31
2022-08-14T23:44:52.612Z,96936.03
2022-08-14T23:47:26.627Z,96933.44
2022-08-14T23:50:04.202Z,96927.38
2022-08-14T23:52:50.500Z,96924.75
2022-08-14T23:55:35.235Z,96926.53
2022-08-14T23:58:08.459Z,96924.78
